Pullman-Moscow Regional Airport

Airport
ICAO code: 
KPUW
Summary
ICAO Region: 
NAM
Territory: 
Location: 
Pullman, Washington,
Coordinates: 
Aerial View: 
46° 44' 37" N, 117° 6' 33.998" W
Airport CFIT: 
Altimeter Temperature Error Correction
Airport WX: 
Mountain Waves
Metar
Observation
KPUW 021553Z AUTO 24003KT 10SM FEW085 07/01 A3012 RMK AO2 SLP204 T00670011
Station
Pullman / Moscow, Pullman / Moscow Regional Airport
Date/Time
2021-12-02 15:53:00
Wind direction
240°
Wind speed
03 kts
Lowest cloud amount
few clouds
Temperature
6.7°C
Dew point
1.1°C
Humidity
67%
Weather condition
n/a

Description

Pullman-Moscow Regional Airport is a public airport located in Whitman County 3 km east of Pullman, Washington and 6 km west of Moscow, Idaho.

Climatology

Semi-arid climate (Köppen climate classification BSk) - Little precipitation, hot summers and cold winters, sometimes with large changes in temperature in a 24 hour period.

Runways

Designator Length Width Surface Rops
5/23 2051 30 ASP Yes/Yes
Airport map: 
Aerial View: 

SKYbrary Partners:

Safety knowledge contributed by: